sensor_id;sensor_type;location;lat;lon;timestamp;P1;durP1;ratioP1;P2;durP2;ratioP2
29538;SDS011;16482;51.046;4.498;2022-12-07T00:01:22;3.65;;;3.08;;
29538;SDS011;16482;51.046;4.498;2022-12-07T00:03:52;3.35;;;2.72;;
29538;SDS011;16482;51.046;4.498;2022-12-07T00:06:22;3.60;;;2.85;;
29538;SDS011;16482;51.046;4.498;2022-12-07T00:08:48;3.88;;;2.70;;
29538;SDS011;16482;51.046;4.498;2022-12-07T00:11:15;3.10;;;2.60;;
29538;SDS011;16482;51.046;4.498;2022-12-07T00:13:43;3.92;;;2.90;;
29538;SDS011;16482;51.046;4.498;2022-12-07T00:16:14;3.78;;;2.80;;
29538;SDS011;16482;51.046;4.498;2022-12-07T00:18:42;2.60;;;2.38;;
29538;SDS011;16482;51.046;4.498;2022-12-07T00:21:10;3.72;;;2.55;;
29538;SDS011;16482;51.046;4.498;2022-12-07T00:23:38;3.10;;;2.72;;
29538;SDS011;16482;51.046;4.498;2022-12-07T00:26:09;3.83;;;3.10;;
29538;SDS011;16482;51.046;4.498;2022-12-07T00:28:40;3.92;;;3.03;;
29538;SDS011;16482;51.046;4.498;2022-12-07T00:31:09;3.38;;;2.55;;
29538;SDS011;16482;51.046;4.498;2022-12-07T00:33:44;3.35;;;2.90;;
29538;SDS011;16482;51.046;4.498;2022-12-07T00:36:12;3.33;;;2.80;;
29538;SDS011;16482;51.046;4.498;2022-12-07T00:38:39;3.10;;;2.75;;
29538;SDS011;16482;51.046;4.498;2022-12-07T00:41:10;3.25;;;2.78;;
29538;SDS011;16482;51.046;4.498;2022-12-07T00:43:39;3.80;;;2.92;;
29538;SDS011;16482;51.046;4.498;2022-12-07T00:46:09;3.20;;;2.70;;
29538;SDS011;16482;51.046;4.498;2022-12-07T00:48:38;3.17;;;2.60;;
29538;SDS011;16482;51.046;4.498;2022-12-07T00:51:04;3.10;;;2.78;;
29538;SDS011;16482;51.046;4.498;2022-12-07T00:53:39;3.50;;;2.83;;
29538;SDS011;16482;51.046;4.498;2022-12-07T00:56:09;3.03;;;2.72;;
29538;SDS011;16482;51.046;4.498;2022-12-07T00:58:38;3.05;;;2.65;;
29538;SDS011;16482;51.046;4.498;2022-12-07T01:01:05;3.35;;;2.70;;
29538;SDS011;16482;51.046;4.498;2022-12-07T01:03:37;3.17;;;2.88;;
29538;SDS011;16482;51.046;4.498;2022-12-07T01:06:03;3.70;;;2.92;;
29538;SDS011;16482;51.046;4.498;2022-12-07T01:08:39;3.65;;;3.13;;
29538;SDS011;16482;51.046;4.498;2022-12-07T01:11:09;3.72;;;2.88;;
29538;SDS011;16482;51.046;4.498;2022-12-07T01:13:44;3.10;;;2.80;;
29538;SDS011;16482;51.046;4.498;2022-12-07T01:16:14;4.75;;;2.90;;
29538;SDS011;16482;51.046;4.498;2022-12-07T01:18:42;3.17;;;2.88;;
29538;SDS011;16482;51.046;4.498;2022-12-07T01:21:11;3.92;;;2.85;;
29538;SDS011;16482;51.046;4.498;2022-12-07T01:23:42;3.17;;;2.83;;
29538;SDS011;16482;51.046;4.498;2022-12-07T01:26:18;3.70;;;2.85;;
29538;SDS011;16482;51.046;4.498;2022-12-07T01:28:46;3.33;;;2.80;;
29538;SDS011;16482;51.046;4.498;2022-12-07T01:31:13;4.25;;;2.75;;
29538;SDS011;16482;51.046;4.498;2022-12-07T01:33:45;3.20;;;2.60;;
29538;SDS011;16482;51.046;4.498;2022-12-07T01:36:13;3.25;;;2.95;;
29538;SDS011;16482;51.046;4.498;2022-12-07T01:38:41;3.30;;;2.58;;
29538;SDS011;16482;51.046;4.498;2022-12-07T01:41:10;3.75;;;3.22;;
29538;SDS011;16482;51.046;4.498;2022-12-07T01:46:33;3.40;;;2.72;;
29538;SDS011;16482;51.046;4.498;2022-12-07T01:49:00;3.13;;;2.80;;
29538;SDS011;16482;51.046;4.498;2022-12-07T01:51:29;4.07;;;3.20;;
29538;SDS011;16482;51.046;4.498;2022-12-07T01:53:55;3.22;;;2.60;;
29538;SDS011;16482;51.046;4.498;2022-12-07T01:56:23;3.53;;;2.95;;
29538;SDS011;16482;51.046;4.498;2022-12-07T01:58:51;3.20;;;2.67;;
29538;SDS011;16482;51.046;4.498;2022-12-07T02:01:19;2.90;;;2.58;;
29538;SDS011;16482;51.046;4.498;2022-12-07T02:03:45;3.03;;;2.63;;
29538;SDS011;16482;51.046;4.498;2022-12-07T02:06:12;3.28;;;2.95;;
29538;SDS011;16482;51.046;4.498;2022-12-07T02:08:42;3.30;;;3.00;;
29538;SDS011;16482;51.046;4.498;2022-12-07T02:11:11;3.20;;;2.70;;
29538;SDS011;16482;51.046;4.498;2022-12-07T02:13:40;3.58;;;2.80;;
29538;SDS011;16482;51.046;4.498;2022-12-07T02:25:12;2.88;;;2.50;;
29538;SDS011;16482;51.046;4.498;2022-12-07T02:30:42;3.00;;;2.35;;
29538;SDS011;16482;51.046;4.498;2022-12-07T02:33:18;3.20;;;2.63;;
29538;SDS011;16482;51.046;4.498;2022-12-07T02:36:17;3.58;;;3.00;;
29538;SDS011;16482;51.046;4.498;2022-12-07T02:39:05;3.72;;;2.70;;
29538;SDS011;16482;51.046;4.498;2022-12-07T02:41:40;3.75;;;2.65;;
29538;SDS011;16482;51.046;4.498;2022-12-07T02:44:15;2.92;;;2.63;;
29538;SDS011;16482;51.046;4.498;2022-12-07T02:46:51;2.70;;;2.50;;
29538;SDS011;16482;51.046;4.498;2022-12-07T02:49:30;3.20;;;2.45;;
29538;SDS011;16482;51.046;4.498;2022-12-07T02:51:57;3.67;;;2.55;;
29538;SDS011;16482;51.046;4.498;2022-12-07T02:54:23;2.78;;;2.35;;
29538;SDS011;16482;51.046;4.498;2022-12-07T02:56:56;2.97;;;2.63;;
29538;SDS011;16482;51.046;4.498;2022-12-07T03:10:31;3.80;;;2.80;;
29538;SDS011;16482;51.046;4.498;2022-12-07T03:18:26;2.90;;;2.53;;
29538;SDS011;16482;51.046;4.498;2022-12-07T03:20:58;3.25;;;2.55;;
29538;SDS011;16482;51.046;4.498;2022-12-07T03:23:29;3.25;;;2.63;;
29538;SDS011;16482;51.046;4.498;2022-12-07T03:26:00;2.60;;;2.30;;
29538;SDS011;16482;51.046;4.498;2022-12-07T03:28:31;3.25;;;2.67;;
29538;SDS011;16482;51.046;4.498;2022-12-07T03:31:15;2.90;;;2.60;;
29538;SDS011;16482;51.046;4.498;2022-12-07T03:36:42;2.58;;;2.38;;
29538;SDS011;16482;51.046;4.498;2022-12-07T03:41:58;3.20;;;2.58;;
29538;SDS011;16482;51.046;4.498;2022-12-07T03:44:28;3.30;;;2.55;;
29538;SDS011;16482;51.046;4.498;2022-12-07T03:47:05;3.55;;;2.70;;
29538;SDS011;16482;51.046;4.498;2022-12-07T03:49:48;2.85;;;2.40;;
29538;SDS011;16482;51.046;4.498;2022-12-07T03:52:24;2.92;;;2.38;;
29538;SDS011;16482;51.046;4.498;2022-12-07T03:55:09;2.85;;;2.20;;
29538;SDS011;16482;51.046;4.498;2022-12-07T03:57:51;2.83;;;2.22;;
29538;SDS011;16482;51.046;4.498;2022-12-07T04:00:20;2.40;;;2.15;;
29538;SDS011;16482;51.046;4.498;2022-12-07T04:02:54;2.88;;;2.47;;
29538;SDS011;16482;51.046;4.498;2022-12-07T04:05:20;2.83;;;2.38;;
29538;SDS011;16482;51.046;4.498;2022-12-07T04:07:54;3.70;;;2.60;;
29538;SDS011;16482;51.046;4.498;2022-12-07T04:10:20;3.15;;;2.28;;
29538;SDS011;16482;51.046;4.498;2022-12-07T04:12:48;3.70;;;2.67;;
29538;SDS011;16482;51.046;4.498;2022-12-07T04:15:14;2.10;;;1.90;;
29538;SDS011;16482;51.046;4.498;2022-12-07T04:17:50;2.78;;;2.00;;
29538;SDS011;16482;51.046;4.498;2022-12-07T04:20:19;2.30;;;2.10;;
29538;SDS011;16482;51.046;4.498;2022-12-07T04:22:53;2.47;;;2.15;;
29538;SDS011;16482;51.046;4.498;2022-12-07T04:25:19;2.25;;;2.05;;
29538;SDS011;16482;51.046;4.498;2022-12-07T04:27:54;2.60;;;2.30;;
29538;SDS011;16482;51.046;4.498;2022-12-07T04:30:20;2.30;;;2.10;;
29538;SDS011;16482;51.046;4.498;2022-12-07T04:32:47;2.50;;;1.88;;
29538;SDS011;16482;51.046;4.498;2022-12-07T04:35:13;2.60;;;1.85;;
29538;SDS011;16482;51.046;4.498;2022-12-07T04:37:39;2.50;;;2.30;;
29538;SDS011;16482;51.046;4.498;2022-12-07T04:40:08;3.17;;;2.17;;
29538;SDS011;16482;51.046;4.498;2022-12-07T04:42:36;2.60;;;1.90;;
29538;SDS011;16482;51.046;4.498;2022-12-07T04:45:02;2.60;;;2.03;;
29538;SDS011;16482;51.046;4.498;2022-12-07T04:47:32;2.63;;;2.10;;
29538;SDS011;16482;51.046;4.498;2022-12-07T04:49:58;2.50;;;2.00;;
29538;SDS011;16482;51.046;4.498;2022-12-07T04:52:24;2.85;;;2.17;;
29538;SDS011;16482;51.046;4.498;2022-12-07T04:54:50;3.05;;;2.10;;
29538;SDS011;16482;51.046;4.498;2022-12-07T04:57:16;2.80;;;1.73;;
29538;SDS011;16482;51.046;4.498;2022-12-07T04:59:42;2.55;;;1.65;;
29538;SDS011;16482;51.046;4.498;2022-12-07T05:02:08;3.50;;;2.08;;
29538;SDS011;16482;51.046;4.498;2022-12-07T05:04:34;2.17;;;1.98;;
29538;SDS011;16482;51.046;4.498;2022-12-07T05:07:02;2.42;;;2.08;;
29538;SDS011;16482;51.046;4.498;2022-12-07T05:09:28;2.65;;;2.00;;
29538;SDS011;16482;51.046;4.498;2022-12-07T05:11:54;2.88;;;2.08;;
29538;SDS011;16482;51.046;4.498;2022-12-07T05:14:23;2.50;;;1.92;;
29538;SDS011;16482;51.046;4.498;2022-12-07T05:16:50;2.15;;;1.90;;
29538;SDS011;16482;51.046;4.498;2022-12-07T05:19:18;2.80;;;1.85;;
29538;SDS011;16482;51.046;4.498;2022-12-07T05:21:45;2.22;;;1.92;;
29538;SDS011;16482;51.046;4.498;2022-12-07T05:24:12;2.20;;;1.77;;
29538;SDS011;16482;51.046;4.498;2022-12-07T05:26:39;2.05;;;1.83;;
29538;SDS011;16482;51.046;4.498;2022-12-07T05:29:05;2.95;;;2.22;;
29538;SDS011;16482;51.046;4.498;2022-12-07T05:31:31;1.92;;;1.70;;
29538;SDS011;16482;51.046;4.498;2022-12-07T05:33:59;3.15;;;2.08;;
29538;SDS011;16482;51.046;4.498;2022-12-07T05:36:25;2.17;;;1.70;;
29538;SDS011;16482;51.046;4.498;2022-12-07T05:38:53;2.60;;;2.00;;
29538;SDS011;16482;51.046;4.498;2022-12-07T05:41:19;1.73;;;1.60;;
29538;SDS011;16482;51.046;4.498;2022-12-07T05:44:04;2.00;;;1.63;;
29538;SDS011;16482;51.046;4.498;2022-12-07T05:46:30;2.80;;;1.90;;
29538;SDS011;16482;51.046;4.498;2022-12-07T05:48:56;2.10;;;1.90;;
29538;SDS011;16482;51.046;4.498;2022-12-07T05:51:22;2.10;;;1.75;;
29538;SDS011;16482;51.046;4.498;2022-12-07T05:53:48;2.55;;;1.80;;
29538;SDS011;16482;51.046;4.498;2022-12-07T05:56:14;2.10;;;1.73;;
29538;SDS011;16482;51.046;4.498;2022-12-07T05:58:43;1.90;;;1.63;;
29538;SDS011;16482;51.046;4.498;2022-12-07T06:01:27;2.00;;;1.70;;
29538;SDS011;16482;51.046;4.498;2022-12-07T06:03:53;1.98;;;1.70;;
29538;SDS011;16482;51.046;4.498;2022-12-07T06:06:19;1.73;;;1.60;;
29538;SDS011;16482;51.046;4.498;2022-12-07T06:08:45;2.30;;;1.83;;
29538;SDS011;16482;51.046;4.498;2022-12-07T06:11:11;1.98;;;1.65;;
29538;SDS011;16482;51.046;4.498;2022-12-07T06:13:55;2.22;;;1.70;;
29538;SDS011;16482;51.046;4.498;2022-12-07T06:16:21;2.85;;;2.10;;
29538;SDS011;16482;51.046;4.498;2022-12-07T06:18:47;2.35;;;1.75;;
29538;SDS011;16482;51.046;4.498;2022-12-07T06:21:13;2.40;;;1.50;;
29538;SDS011;16482;51.046;4.498;2022-12-07T06:23:39;2.55;;;1.75;;
29538;SDS011;16482;51.046;4.498;2022-12-07T06:26:08;1.90;;;1.60;;
29538;SDS011;16482;51.046;4.498;2022-12-07T06:28:34;1.83;;;1.25;;
29538;SDS011;16482;51.046;4.498;2022-12-07T06:31:00;1.50;;;1.40;;
29538;SDS011;16482;51.046;4.498;2022-12-07T06:33:27;1.58;;;1.45;;
29538;SDS011;16482;51.046;4.498;2022-12-07T06:35:54;2.50;;;1.40;;
29538;SDS011;16482;51.046;4.498;2022-12-07T06:38:20;1.98;;;1.67;;
29538;SDS011;16482;51.046;4.498;2022-12-07T06:40:46;2.28;;;1.70;;
29538;SDS011;16482;51.046;4.498;2022-12-07T06:43:13;2.15;;;1.60;;
29538;SDS011;16482;51.046;4.498;2022-12-07T06:45:40;1.98;;;1.30;;
29538;SDS011;16482;51.046;4.498;2022-12-07T06:48:06;2.83;;;1.92;;
29538;SDS011;16482;51.046;4.498;2022-12-07T06:50:32;1.85;;;1.40;;
29538;SDS011;16482;51.046;4.498;2022-12-07T06:52:58;2.45;;;1.52;;
29538;SDS011;16482;51.046;4.498;2022-12-07T06:55:24;2.20;;;1.52;;
29538;SDS011;16482;51.046;4.498;2022-12-07T06:57:50;2.08;;;1.50;;
29538;SDS011;16482;51.046;4.498;2022-12-07T07:00:24;2.63;;;1.67;;
29538;SDS011;16482;51.046;4.498;2022-12-07T07:02:52;1.98;;;1.60;;
29538;SDS011;16482;51.046;4.498;2022-12-07T07:05:18;2.28;;;1.30;;
29538;SDS011;16482;51.046;4.498;2022-12-07T07:07:54;2.95;;;1.50;;
29538;SDS011;16482;51.046;4.498;2022-12-07T07:10:20;2.30;;;1.80;;
29538;SDS011;16482;51.046;4.498;2022-12-07T07:12:49;1.92;;;1.40;;
29538;SDS011;16482;51.046;4.498;2022-12-07T07:15:15;1.88;;;1.55;;
29538;SDS011;16482;51.046;4.498;2022-12-07T07:17:43;2.05;;;1.25;;
29538;SDS011;16482;51.046;4.498;2022-12-07T07:20:10;1.40;;;1.27;;
29538;SDS011;16482;51.046;4.498;2022-12-07T07:22:36;1.95;;;1.40;;
29538;SDS011;16482;51.046;4.498;2022-12-07T07:25:02;2.83;;;1.38;;
29538;SDS011;16482;51.046;4.498;2022-12-07T07:27:28;2.75;;;1.50;;
29538;SDS011;16482;51.046;4.498;2022-12-07T07:29:54;2.40;;;1.30;;
29538;SDS011;16482;51.046;4.498;2022-12-07T07:32:20;1.65;;;1.30;;
29538;SDS011;16482;51.046;4.498;2022-12-07T07:34:47;2.42;;;1.45;;
29538;SDS011;16482;51.046;4.498;2022-12-07T07:37:13;2.03;;;1.60;;
29538;SDS011;16482;51.046;4.498;2022-12-07T07:39:39;1.42;;;1.27;;
29538;SDS011;16482;51.046;4.498;2022-12-07T07:42:05;1.90;;;1.20;;
29538;SDS011;16482;51.046;4.498;2022-12-07T07:44:32;1.80;;;1.48;;
29538;SDS011;16482;51.046;4.498;2022-12-07T07:46:59;2.15;;;1.25;;
29538;SDS011;16482;51.046;4.498;2022-12-07T07:49:25;2.47;;;1.58;;
29538;SDS011;16482;51.046;4.498;2022-12-07T07:51:54;2.53;;;1.48;;
29538;SDS011;16482;51.046;4.498;2022-12-07T07:54:20;1.90;;;1.30;;
29538;SDS011;16482;51.046;4.498;2022-12-07T07:56:46;2.92;;;1.50;;
29538;SDS011;16482;51.046;4.498;2022-12-07T07:59:12;3.90;;;1.38;;
29538;SDS011;16482;51.046;4.498;2022-12-07T08:01:38;3.70;;;1.50;;
29538;SDS011;16482;51.046;4.498;2022-12-07T08:04:04;6.07;;;1.55;;
29538;SDS011;16482;51.046;4.498;2022-12-07T08:06:30;1.95;;;1.25;;
29538;SDS011;16482;51.046;4.498;2022-12-07T08:08:56;2.38;;;1.20;;
29538;SDS011;16482;51.046;4.498;2022-12-07T08:11:23;2.47;;;1.45;;
29538;SDS011;16482;51.046;4.498;2022-12-07T08:13:51;2.03;;;1.50;;
29538;SDS011;16482;51.046;4.498;2022-12-07T08:16:17;4.30;;;1.30;;
29538;SDS011;16482;51.046;4.498;2022-12-07T08:18:43;3.00;;;1.48;;
29538;SDS011;16482;51.046;4.498;2022-12-07T08:21:13;2.55;;;1.38;;
29538;SDS011;16482;51.046;4.498;2022-12-07T08:23:40;2.65;;;1.67;;
29538;SDS011;16482;51.046;4.498;2022-12-07T08:26:08;5.85;;;1.63;;
29538;SDS011;16482;51.046;4.498;2022-12-07T08:28:41;1.80;;;1.40;;
29538;SDS011;16482;51.046;4.498;2022-12-07T08:31:09;2.78;;;1.70;;
29538;SDS011;16482;51.046;4.498;2022-12-07T08:33:38;3.08;;;1.80;;
29538;SDS011;16482;51.046;4.498;2022-12-07T08:36:05;3.60;;;1.90;;
29538;SDS011;16482;51.046;4.498;2022-12-07T08:38:35;2.72;;;1.60;;
29538;SDS011;16482;51.046;4.498;2022-12-07T08:41:02;2.28;;;1.77;;
29538;SDS011;16482;51.046;4.498;2022-12-07T08:43:29;3.58;;;1.95;;
29538;SDS011;16482;51.046;4.498;2022-12-07T08:51:27;3.90;;;2.20;;
29538;SDS011;16482;51.046;4.498;2022-12-07T08:53:53;6.10;;;2.50;;
29538;SDS011;16482;51.046;4.498;2022-12-07T08:56:20;4.13;;;1.90;;
29538;SDS011;16482;51.046;4.498;2022-12-07T08:58:46;4.68;;;2.03;;
29538;SDS011;16482;51.046;4.498;2022-12-07T09:01:13;4.80;;;1.90;;
29538;SDS011;16482;51.046;4.498;2022-12-07T09:03:39;2.97;;;1.88;;
29538;SDS011;16482;51.046;4.498;2022-12-07T09:06:05;4.13;;;2.03;;
29538;SDS011;16482;51.046;4.498;2022-12-07T09:08:36;3.83;;;2.03;;
29538;SDS011;16482;51.046;4.498;2022-12-07T09:11:05;5.30;;;1.98;;
29538;SDS011;16482;51.046;4.498;2022-12-07T09:13:32;3.03;;;1.80;;
29538;SDS011;16482;51.046;4.498;2022-12-07T09:15:58;3.55;;;2.00;;
29538;SDS011;16482;51.046;4.498;2022-12-07T09:18:24;5.60;;;2.05;;
29538;SDS011;16482;51.046;4.498;2022-12-07T09:20:50;2.13;;;1.65;;
29538;SDS011;16482;51.046;4.498;2022-12-07T09:23:16;3.78;;;2.25;;
29538;SDS011;16482;51.046;4.498;2022-12-07T09:25:42;4.88;;;1.90;;
29538;SDS011;16482;51.046;4.498;2022-12-07T09:28:08;3.55;;;1.77;;
29538;SDS011;16482;51.046;4.498;2022-12-07T09:30:35;3.85;;;2.00;;
29538;SDS011;16482;51.046;4.498;2022-12-07T09:33:01;2.70;;;1.98;;
29538;SDS011;16482;51.046;4.498;2022-12-07T09:35:27;2.90;;;1.85;;
29538;SDS011;16482;51.046;4.498;2022-12-07T09:37:53;3.42;;;1.98;;
29538;SDS011;16482;51.046;4.498;2022-12-07T09:40:22;3.03;;;2.08;;
29538;SDS011;16482;51.046;4.498;2022-12-07T09:42:50;3.65;;;1.70;;
29538;SDS011;16482;51.046;4.498;2022-12-07T09:45:22;3.15;;;1.92;;
29538;SDS011;16482;51.046;4.498;2022-12-07T09:47:52;3.25;;;1.88;;
29538;SDS011;16482;51.046;4.498;2022-12-07T09:50:20;2.65;;;1.63;;
29538;SDS011;16482;51.046;4.498;2022-12-07T09:52:51;2.55;;;1.70;;
29538;SDS011;16482;51.046;4.498;2022-12-07T09:55:26;2.42;;;1.67;;
29538;SDS011;16482;51.046;4.498;2022-12-07T09:57:54;3.22;;;1.98;;
29538;SDS011;16482;51.046;4.498;2022-12-07T10:00:24;2.65;;;1.70;;
29538;SDS011;16482;51.046;4.498;2022-12-07T10:03:00;2.90;;;1.58;;
29538;SDS011;16482;51.046;4.498;2022-12-07T10:05:28;2.15;;;1.65;;
29538;SDS011;16482;51.046;4.498;2022-12-07T10:08:00;2.65;;;1.60;;
29538;SDS011;16482;51.046;4.498;2022-12-07T10:10:30;2.47;;;1.65;;
29538;SDS011;16482;51.046;4.498;2022-12-07T10:12:58;3.00;;;1.65;;
29538;SDS011;16482;51.046;4.498;2022-12-07T10:18:19;2.33;;;1.63;;
29538;SDS011;16482;51.046;4.498;2022-12-07T10:20:46;3.33;;;1.60;;
29538;SDS011;16482;51.046;4.498;2022-12-07T10:23:17;3.35;;;1.52;;
29538;SDS011;16482;51.046;4.498;2022-12-07T10:25:43;2.97;;;1.75;;
29538;SDS011;16482;51.046;4.498;2022-12-07T10:28:17;2.15;;;1.42;;
29538;SDS011;16482;51.046;4.498;2022-12-07T10:30:48;2.22;;;1.67;;
29538;SDS011;16482;51.046;4.498;2022-12-07T10:36:17;1.90;;;1.50;;
29538;SDS011;16482;51.046;4.498;2022-12-07T10:39:14;2.97;;;1.63;;
29538;SDS011;16482;51.046;4.498;2022-12-07T10:41:54;2.00;;;1.58;;
29538;SDS011;16482;51.046;4.498;2022-12-07T10:44:32;2.50;;;1.63;;
29538;SDS011;16482;51.046;4.498;2022-12-07T10:50:14;1.83;;;1.50;;
29538;SDS011;16482;51.046;4.498;2022-12-07T11:01:24;1.95;;;1.63;;
29538;SDS011;16482;51.046;4.498;2022-12-07T11:04:17;3.40;;;1.70;;
29538;SDS011;16482;51.046;4.498;2022-12-07T11:06:57;2.85;;;1.70;;
29538;SDS011;16482;51.046;4.498;2022-12-07T11:12:15;2.35;;;1.52;;
29538;SDS011;16482;51.046;4.498;2022-12-07T11:15:01;2.03;;;1.48;;
29538;SDS011;16482;51.046;4.498;2022-12-07T11:20:26;1.90;;;1.70;;
29538;SDS011;16482;51.046;4.498;2022-12-07T11:25:42;3.40;;;1.70;;
29538;SDS011;16482;51.046;4.498;2022-12-07T11:28:39;2.67;;;1.70;;
29538;SDS011;16482;51.046;4.498;2022-12-07T11:31:30;2.67;;;1.77;;
29538;SDS011;16482;51.046;4.498;2022-12-07T11:36:49;2.50;;;1.70;;
29538;SDS011;16482;51.046;4.498;2022-12-07T11:39:41;3.58;;;1.73;;
29538;SDS011;16482;51.046;4.498;2022-12-07T11:44:52;2.35;;;1.80;;
29538;SDS011;16482;51.046;4.498;2022-12-07T11:55:41;2.97;;;1.75;;
29538;SDS011;16482;51.046;4.498;2022-12-07T11:58:22;2.03;;;1.70;;
29538;SDS011;16482;51.046;4.498;2022-12-07T12:06:25;2.55;;;1.70;;
29538;SDS011;16482;51.046;4.498;2022-12-07T12:11:48;1.98;;;1.50;;
29538;SDS011;16482;51.046;4.498;2022-12-07T12:14:30;3.60;;;1.50;;
29538;SDS011;16482;51.046;4.498;2022-12-07T12:19:38;2.35;;;1.60;;
29538;SDS011;16482;51.046;4.498;2022-12-07T12:22:32;3.50;;;1.67;;
29538;SDS011;16482;51.046;4.498;2022-12-07T12:25:03;3.03;;;1.75;;
29538;SDS011;16482;51.046;4.498;2022-12-07T12:27:36;2.22;;;1.65;;
29538;SDS011;16482;51.046;4.498;2022-12-07T12:30:05;3.22;;;1.75;;
29538;SDS011;16482;51.046;4.498;2022-12-07T12:32:48;3.17;;;1.77;;
29538;SDS011;16482;51.046;4.498;2022-12-07T12:35:34;3.25;;;1.60;;
29538;SDS011;16482;51.046;4.498;2022-12-07T12:40:58;3.95;;;1.70;;
29538;SDS011;16482;51.046;4.498;2022-12-07T12:43:42;2.35;;;1.60;;
29538;SDS011;16482;51.046;4.498;2022-12-07T12:51:44;3.75;;;1.50;;
29538;SDS011;16482;51.046;4.498;2022-12-07T12:54:15;3.08;;;1.58;;
29538;SDS011;16482;51.046;4.498;2022-12-07T12:59:38;4.53;;;1.77;;
29538;SDS011;16482;51.046;4.498;2022-12-07T13:10:37;2.37;;;1.43;;
29538;SDS011;16482;51.046;4.498;2022-12-07T13:15:46;2.17;;;1.10;;
29538;SDS011;16482;51.046;4.498;2022-12-07T13:23:30;2.67;;;1.50;;
29538;SDS011;16482;51.046;4.498;2022-12-07T13:28:50;3.88;;;1.58;;
29538;SDS011;16482;51.046;4.498;2022-12-07T13:31:23;1.98;;;1.30;;
29538;SDS011;16482;51.046;4.498;2022-12-07T13:33:57;2.35;;;1.33;;
29538;SDS011;16482;51.046;4.498;2022-12-07T13:36:25;3.08;;;1.40;;
29538;SDS011;16482;51.046;4.498;2022-12-07T13:39:09;2.58;;;1.50;;
29538;SDS011;16482;51.046;4.498;2022-12-07T13:41:40;1.70;;;1.10;;
29538;SDS011;16482;51.046;4.498;2022-12-07T13:44:16;2.50;;;1.38;;
29538;SDS011;16482;51.046;4.498;2022-12-07T13:46:49;2.67;;;1.40;;
29538;SDS011;16482;51.046;4.498;2022-12-07T13:49:16;2.10;;;1.40;;
29538;SDS011;16482;51.046;4.498;2022-12-07T13:51:45;1.73;;;1.02;;
29538;SDS011;16482;51.046;4.498;2022-12-07T13:54:11;2.22;;;1.27;;
29538;SDS011;16482;51.046;4.498;2022-12-07T13:56:38;2.55;;;1.40;;
29538;SDS011;16482;51.046;4.498;2022-12-07T13:59:10;1.85;;;1.30;;
29538;SDS011;16482;51.046;4.498;2022-12-07T14:10:03;2.22;;;1.42;;
29538;SDS011;16482;51.046;4.498;2022-12-07T14:15:02;1.73;;;1.10;;
29538;SDS011;16482;51.046;4.498;2022-12-07T14:17:28;1.52;;;1.08;;
29538;SDS011;16482;51.046;4.498;2022-12-07T14:19:57;1.48;;;0.93;;
29538;SDS011;16482;51.046;4.498;2022-12-07T14:22:29;1.33;;;1.13;;
29538;SDS011;16482;51.046;4.498;2022-12-07T14:28:09;2.35;;;1.00;;
29538;SDS011;16482;51.046;4.498;2022-12-07T14:31:00;1.90;;;1.20;;
29538;SDS011;16482;51.046;4.498;2022-12-07T14:33:27;1.38;;;1.08;;
29538;SDS011;16482;51.046;4.498;2022-12-07T14:35:53;1.92;;;1.02;;
29538;SDS011;16482;51.046;4.498;2022-12-07T14:38:24;1.45;;;1.00;;
29538;SDS011;16482;51.046;4.498;2022-12-07T14:40:51;1.65;;;1.17;;
29538;SDS011;16482;51.046;4.498;2022-12-07T14:43:18;1.75;;;1.00;;
29538;SDS011;16482;51.046;4.498;2022-12-07T14:45:45;2.17;;;1.38;;
29538;SDS011;16482;51.046;4.498;2022-12-07T14:48:12;2.95;;;1.00;;
29538;SDS011;16482;51.046;4.498;2022-12-07T14:50:42;1.55;;;0.90;;
29538;SDS011;16482;51.046;4.498;2022-12-07T14:53:14;1.20;;;0.95;;
29538;SDS011;16482;51.046;4.498;2022-12-07T14:55:42;2.33;;;1.02;;
29538;SDS011;16482;51.046;4.498;2022-12-07T14:58:12;1.67;;;1.20;;
29538;SDS011;16482;51.046;4.498;2022-12-07T15:00:39;1.30;;;0.90;;
29538;SDS011;16482;51.046;4.498;2022-12-07T15:03:05;1.52;;;0.90;;
29538;SDS011;16482;51.046;4.498;2022-12-07T15:05:32;1.95;;;1.35;;
29538;SDS011;16482;51.046;4.498;2022-12-07T15:07:59;1.80;;;1.10;;
29538;SDS011;16482;51.046;4.498;2022-12-07T15:10:28;1.67;;;1.00;;
29538;SDS011;16482;51.046;4.498;2022-12-07T15:13:00;1.35;;;1.13;;
29538;SDS011;16482;51.046;4.498;2022-12-07T15:15:49;4.13;;;1.40;;
29538;SDS011;16482;51.046;4.498;2022-12-07T15:18:17;1.65;;;1.00;;
29538;SDS011;16482;51.046;4.498;2022-12-07T15:20:44;1.05;;;0.85;;
29538;SDS011;16482;51.046;4.498;2022-12-07T15:23:11;1.58;;;1.20;;
29538;SDS011;16482;51.046;4.498;2022-12-07T15:25:41;1.77;;;1.10;;
29538;SDS011;16482;51.046;4.498;2022-12-07T15:28:08;2.03;;;1.10;;
29538;SDS011;16482;51.046;4.498;2022-12-07T15:30:34;1.05;;;0.90;;
29538;SDS011;16482;51.046;4.498;2022-12-07T15:33:02;1.42;;;1.17;;
29538;SDS011;16482;51.046;4.498;2022-12-07T15:35:31;2.08;;;1.00;;
29538;SDS011;16482;51.046;4.498;2022-12-07T15:37:57;0.85;;;0.80;;
29538;SDS011;16482;51.046;4.498;2022-12-07T15:40:23;1.35;;;1.05;;
29538;SDS011;16482;51.046;4.498;2022-12-07T15:42:49;1.42;;;0.90;;
29538;SDS011;16482;51.046;4.498;2022-12-07T15:45:18;1.35;;;1.02;;
29538;SDS011;16482;51.046;4.498;2022-12-07T15:47:46;1.30;;;1.10;;
29538;SDS011;16482;51.046;4.498;2022-12-07T15:50:13;2.15;;;1.10;;
29538;SDS011;16482;51.046;4.498;2022-12-07T15:52:41;1.92;;;1.02;;
29538;SDS011;16482;51.046;4.498;2022-12-07T15:55:08;1.77;;;1.02;;
29538;SDS011;16482;51.046;4.498;2022-12-07T15:57:35;3.05;;;1.05;;
29538;SDS011;16482;51.046;4.498;2022-12-07T16:00:03;3.22;;;1.20;;
29538;SDS011;16482;51.046;4.498;2022-12-07T16:02:30;1.20;;;0.88;;
29538;SDS011;16482;51.046;4.498;2022-12-07T16:04:56;2.08;;;1.10;;
29538;SDS011;16482;51.046;4.498;2022-12-07T16:07:22;3.08;;;1.10;;
29538;SDS011;16482;51.046;4.498;2022-12-07T16:09:48;2.35;;;1.10;;
29538;SDS011;16482;51.046;4.498;2022-12-07T16:12:15;1.80;;;1.20;;
29538;SDS011;16482;51.046;4.498;2022-12-07T16:14:41;1.35;;;1.00;;
29538;SDS011;16482;51.046;4.498;2022-12-07T16:17:08;3.08;;;1.20;;
29538;SDS011;16482;51.046;4.498;2022-12-07T16:19:34;1.88;;;1.35;;
29538;SDS011;16482;51.046;4.498;2022-12-07T16:22:02;2.78;;;1.23;;
29538;SDS011;16482;51.046;4.498;2022-12-07T16:24:29;1.48;;;1.10;;
29538;SDS011;16482;51.046;4.498;2022-12-07T16:26:56;1.75;;;1.00;;
29538;SDS011;16482;51.046;4.498;2022-12-07T16:29:24;1.50;;;1.10;;
29538;SDS011;16482;51.046;4.498;2022-12-07T16:31:53;5.63;;;1.40;;
29538;SDS011;16482;51.046;4.498;2022-12-07T16:34:19;1.25;;;0.95;;
29538;SDS011;16482;51.046;4.498;2022-12-07T16:36:45;1.25;;;1.05;;
29538;SDS011;16482;51.046;4.498;2022-12-07T16:39:11;2.70;;;1.50;;
29538;SDS011;16482;51.046;4.498;2022-12-07T16:41:38;1.55;;;1.10;;
29538;SDS011;16482;51.046;4.498;2022-12-07T16:44:04;1.83;;;1.20;;
29538;SDS011;16482;51.046;4.498;2022-12-07T16:46:32;2.15;;;1.30;;
29538;SDS011;16482;51.046;4.498;2022-12-07T16:49:00;2.00;;;1.33;;
29538;SDS011;16482;51.046;4.498;2022-12-07T16:51:27;1.75;;;1.25;;
29538;SDS011;16482;51.046;4.498;2022-12-07T16:53:53;2.10;;;1.17;;
29538;SDS011;16482;51.046;4.498;2022-12-07T16:56:19;2.60;;;1.40;;
29538;SDS011;16482;51.046;4.498;2022-12-07T16:58:46;2.10;;;1.30;;
29538;SDS011;16482;51.046;4.498;2022-12-07T17:01:17;1.63;;;1.10;;
29538;SDS011;16482;51.046;4.498;2022-12-07T17:03:47;1.52;;;1.10;;
29538;SDS011;16482;51.046;4.498;2022-12-07T17:06:18;2.55;;;1.40;;
29538;SDS011;16482;51.046;4.498;2022-12-07T17:08:48;1.77;;;1.23;;
29538;SDS011;16482;51.046;4.498;2022-12-07T17:11:17;3.40;;;1.40;;
29538;SDS011;16482;51.046;4.498;2022-12-07T17:13:47;3.20;;;1.42;;
29538;SDS011;16482;51.046;4.498;2022-12-07T17:16:33;3.05;;;1.30;;
29538;SDS011;16482;51.046;4.498;2022-12-07T17:18:59;2.15;;;1.33;;
29538;SDS011;16482;51.046;4.498;2022-12-07T17:21:29;2.38;;;1.20;;